Time;durP1;ratioP1;P1;durP2;ratioP2;P2;SDS_P1;SDS_P2;PMS_P1;PMS_P2;Temp;Humidity;BMP_temperature;BMP_pressure;BME280_temperature;BME280_humidity;BME280_pressure;Samples;Min_cycle;Max_cycle;Signal;HPM_P1;HPM_P2
2022/11/19 00:00:46;;;;;;;14.68;9.78;;;;;;;20.38;45.19;99305.00;1773429;79;20975;-80
2022/11/19 00:03:14;;;;;;;15.03;10.55;;;;;;;20.38;45.20;99313.28;1772921;81;21274;-80
2022/11/19 00:05:48;;;;;;;15.95;10.25;;;;;;;20.38;45.19;99312.48;1773188;80;21054;-80
2022/11/19 00:08:17;;;;;;;14.45;9.78;;;;;;;20.38;45.20;99327.67;1773068;80;21500;-81
2022/11/19 00:10:43;;;;;;;15.00;10.48;;;;;;;20.37;45.18;99337.91;1772923;81;21126;-80
2022/11/19 00:13:12;;;;;;;15.85;10.20;;;;;;;20.36;45.21;99334.95;1746866;80;21612;-80
2022/11/19 00:15:38;;;;;;;13.10;9.38;;;;;;;20.38;45.19;99348.39;1778424;79;21048;-81
2022/11/19 00:18:05;;;;;;;16.37;10.15;;;;;;;20.36;45.20;99339.09;1773088;81;21000;-81
2022/11/19 00:20:33;;;;;;;15.85;10.72;;;;;;;20.37;45.17;99335.72;1773318;79;21790;-80
2022/11/19 00:22:59;;;;;;;14.55;10.25;;;;;;;20.35;45.20;99337.48;1772702;79;21014;-81
2022/11/19 00:25:28;;;;;;;15.95;10.78;;;;;;;20.35;45.18;99346.34;1772869;79;21000;-80
2022/11/19 00:27:56;;;;;;;14.50;9.45;;;;;;;20.35;45.21;99353.24;1773166;80;21047;-81
2022/11/19 00:30:22;;;;;;;13.58;10.15;;;;;;;20.35;45.20;99351.29;1772900;79;21030;-81
2022/11/19 00:32:48;;;;;;;13.15;9.70;;;;;;;20.35;45.17;99349.09;1772975;81;21027;-81
2022/11/19 00:35:15;;;;;;;12.85;9.65;;;;;;;20.35;45.16;99350.48;1773088;80;21075;-80
2022/11/19 00:37:41;;;;;;;14.83;9.40;;;;;;;20.35;45.17;99350.48;1773325;79;21114;-80
2022/11/19 00:40:10;;;;;;;16.42;10.13;;;;;;;20.34;45.16;99360.72;1773007;81;20983;-81
2022/11/19 00:42:37;;;;;;;14.58;9.80;;;;;;;20.33;45.17;99369.34;1773016;79;21022;-80
2022/11/19 00:45:06;;;;;;;14.23;9.85;;;;;;;20.34;45.17;99364.05;1773265;79;21128;-80
2022/11/19 00:47:32;;;;;;;15.30;9.88;;;;;;;20.34;45.16;99363.48;1772890;79;21035;-81
2022/11/19 00:49:58;;;;;;;14.28;9.65;;;;;;;20.34;45.17;99369.58;1773308;80;21492;-80
2022/11/19 00:52:25;;;;;;;14.33;9.65;;;;;;;20.32;45.15;99378.23;1773243;79;21043;-81
2022/11/19 00:54:51;;;;;;;15.40;10.32;;;;;;;20.32;45.16;99382.38;1773058;81;21023;-81
2022/11/19 00:57:17;;;;;;;16.95;10.08;;;;;;;20.33;45.16;99387.30;1764631;79;22113;-81
2022/11/19 00:59:43;;;;;;;14.85;9.95;;;;;;;20.32;45.16;99389.28;1764472;80;20980;-81
2022/11/19 01:02:10;;;;;;;17.42;10.10;;;;;;;20.32;45.17;99389.86;1772895;79;20995;-80
2022/11/19 01:04:36;;;;;;;14.43;9.50;;;;;;;20.32;45.18;99398.95;1773368;79;20983;-81
2022/11/19 01:07:02;;;;;;;12.82;9.13;;;;;;;20.31;45.18;99394.57;1773138;79;21055;-80
2022/11/19 01:09:30;;;;;;;12.90;9.25;;;;;;;20.31;45.18;99391.81;1763491;81;40088;-80
2022/11/19 01:11:56;;;;;;;12.70;9.05;;;;;;;20.31;45.19;99413.10;1772592;79;21066;-80
2022/11/19 01:14:22;;;;;;;14.73;9.10;;;;;;;20.31;45.19;99418.62;1772820;80;21026;-78
2022/11/19 01:16:49;;;;;;;12.63;8.93;;;;;;;20.31;45.19;99428.30;1772758;79;21506;-80
2022/11/19 01:19:15;;;;;;;15.40;9.40;;;;;;;20.31;45.18;99424.15;1763832;81;21557;-80
2022/11/19 01:21:41;;;;;;;13.78;9.35;;;;;;;20.31;45.20;99420.00;1772773;80;21815;-81
2022/11/19 01:24:08;;;;;;;12.98;9.05;;;;;;;20.31;45.23;99425.53;1764137;80;21003;-81
2022/11/19 01:26:34;;;;;;;12.55;8.93;;;;;;;20.30;45.20;99423.91;1772910;81;21034;-80
2022/11/19 01:29:02;;;;;;;11.88;8.65;;;;;;;20.31;45.21;99439.34;1764244;80;21612;-81
2022/11/19 01:31:29;;;;;;;11.68;8.40;;;;;;;20.29;45.22;99446.58;1772847;79;21058;-81
2022/11/19 01:33:55;;;;;;;13.78;8.38;;;;;;;20.30;45.22;99452.91;1772673;81;21184;-81
2022/11/19 01:36:24;;;;;;;12.00;9.10;;;;;;;20.29;45.21;99460.39;1772608;80;21003;-81
2022/11/19 01:38:50;;;;;;;13.48;8.45;;;;;;;20.28;45.23;99461.53;1772833;79;21070;-81
2022/11/19 01:41:29;;;;;;;12.90;8.68;;;;;;;20.28;45.20;99462.11;1772643;79;21027;-81
2022/11/19 01:44:00;;;;;;;13.95;9.65;;;;;;;20.28;45.22;99456.58;1772326;80;21031;-80
2022/11/19 01:46:36;;;;;;;12.53;9.00;;;;;;;20.28;45.21;99478.68;1772924;79;21280;-81
2022/11/19 01:49:09;;;;;;;10.75;8.23;;;;;;;20.27;45.20;99472.92;1772696;80;21090;-80
2022/11/19 01:51:46;;;;;;;11.50;8.38;;;;;;;20.27;45.21;99485.34;1772963;81;21615;-80
2022/11/19 01:54:35;;;;;;;13.48;9.33;;;;;;;20.27;45.21;99483.97;1773191;80;21038;-81
2022/11/19 01:57:05;;;;;;;13.58;9.18;;;;;;;20.26;45.19;99490.06;1724637;80;21403;-81
2022/11/19 01:59:31;;;;;;;12.05;8.60;;;;;;;20.26;45.21;99494.78;1772761;79;21994;-80
2022/11/19 02:01:57;;;;;;;13.10;8.63;;;;;;;20.25;45.21;99497.30;1773087;79;21023;-80
2022/11/19 02:04:23;;;;;;;11.22;8.73;;;;;;;20.25;45.23;99502.83;1772858;81;21465;-80
2022/11/19 02:06:50;;;;;;;11.78;8.70;;;;;;;20.25;45.22;99508.34;1773074;79;20975;-80
2022/11/19 02:09:16;;;;;;;12.33;8.58;;;;;;;20.24;45.21;99497.09;1779056;79;21038;-80
2022/11/19 02:12:27;;;;;;;12.07;8.33;;;;;;;20.25;45.22;99512.49;1773631;80;21146;-79
2022/11/19 02:15:06;;;;;;;;;;;;;;;20.24;45.23;99526.09;1783286;80;21038;-81
2022/11/19 02:18:13;;;;;;;11.35;8.15;;;;;;;20.22;45.21;99534.71;1784123;80;20470;-81
2022/11/19 02:20:53;;;;;;;10.80;8.38;;;;;;;20.21;45.19;99535.86;1774048;80;21527;-81
2022/11/19 02:23:39;;;;;;;11.93;8.37;;;;;;;20.20;45.19;99530.70;1784318;79;21664;-81
2022/11/19 02:26:51;;;;;;;13.00;8.90;;;;;;;20.19;45.19;99533.22;1774104;80;21110;-79
2022/11/19 02:29:32;;;;;;;11.78;8.50;;;;;;;20.19;45.20;99535.98;1784193;80;21062;-79
2022/11/19 02:32:11;;;;;;;13.40;8.85;;;;;;;20.18;45.19;99541.27;1792386;79;21003;-81
2022/11/19 02:34:42;;;;;;;14.45;8.75;;;;;;;20.18;45.21;99555.08;1795317;79;21038;-80
2022/11/19 02:37:33;;;;;;;;;;;;;;;20.17;45.21;99558.98;1795269;80;21548;-81
2022/11/19 02:40:23;;;;;;;13.43;8.00;;;;;;;20.17;45.22;99568.08;1768329;80;22223;-80
2022/11/19 02:43:10;;;;;;;10.63;7.83;;;;;;;20.16;45.25;99578.07;1792476;79;21015;-81
2022/11/19 02:45:40;;;;;;;11.95;8.23;;;;;;;20.14;45.24;99578.44;1792060;79;21045;-81
2022/11/19 02:48:23;;;;;;;11.63;8.48;;;;;;;20.15;45.27;99573.72;1792627;79;21006;-81
2022/11/19 02:50:54;;;;;;;11.65;8.23;;;;;;;20.15;45.27;99575.11;1792160;80;20979;-81
2022/11/19 02:53:22;;;;;;;12.03;7.97;;;;;;;20.14;45.28;99584.53;1769660;80;21595;-81
2022/11/19 03:06:49;;;;;;;12.35;8.33;;;;;;;20.13;45.29;99626.52;1811617;79;21116;-80
2022/11/19 03:09:15;;;;;;;11.55;8.33;;;;;;;20.13;45.30;99621.57;1792500;79;21565;-80
2022/11/19 03:11:43;;;;;;;10.93;7.97;;;;;;;20.13;45.31;99627.91;1792570;80;21033;-80
2022/11/19 03:17:20;;;;;;;12.70;8.78;;;;;;;20.13;45.30;99635.37;1799771;79;21029;-81
2022/11/19 03:19:50;;;;;;;13.90;9.00;;;;;;;20.13;45.30;99627.91;1794804;79;21134;-80
2022/11/19 03:22:41;;;;;;;11.55;8.28;;;;;;;20.14;45.29;99641.14;1794206;79;20986;-80
2022/11/19 03:25:26;;;;;;;;;;;;;;;20.14;45.29;99652.19;1795404;79;20989;-81
2022/11/19 03:27:57;;;;;;;12.85;8.28;;;;;;;20.12;45.28;99666.32;1792854;79;20106;-80
2022/11/19 03:30:23;;;;;;;10.80;8.03;;;;;;;20.11;45.30;99662.55;1793219;79;21551;-80
2022/11/19 03:33:03;;;;;;;12.03;8.68;;;;;;;20.12;45.30;99666.89;1792910;80;21792;-80
2022/11/19 03:35:34;;;;;;;11.30;8.43;;;;;;;20.11;45.31;99668.06;1806524;79;21505;-80
2022/11/19 03:38:03;;;;;;;11.53;8.65;;;;;;;20.11;45.30;99686.02;1784910;80;21472;-80
2022/11/19 03:40:30;;;;;;;12.53;8.33;;;;;;;20.09;45.31;99687.72;1773909;80;21605;-80
2022/11/19 03:42:56;;;;;;;10.95;8.05;;;;;;;20.10;45.31;99698.20;1784351;79;21038;-80
2022/11/19 03:45:26;;;;;;;11.03;8.48;;;;;;;20.12;45.31;99704.17;1736516;80;21278;-80
2022/11/19 03:47:53;;;;;;;11.43;8.68;;;;;;;20.11;45.29;99713.05;1784794;80;21524;-80
2022/11/19 03:50:52;;;;;;;11.12;8.45;;;;;;;20.10;45.31;99715.58;1773812;80;21059;-80
2022/11/19 03:53:18;;;;;;;12.00;8.40;;;;;;;20.11;45.30;99726.86;1784577;80;21035;-80
2022/11/19 03:55:53;;;;;;;11.68;9.15;;;;;;;20.10;45.29;99734.09;1807449;79;21517;-80
2022/11/19 03:58:24;;;;;;;12.70;8.95;;;;;;;20.12;45.28;99742.83;1779815;79;21125;-81
2022/11/19 04:00:51;;;;;;;12.55;9.23;;;;;;;20.10;45.27;99740.42;1773279;80;21067;-80
2022/11/19 04:03:17;;;;;;;14.43;8.85;;;;;;;20.11;45.29;99746.77;1784542;80;20995;-80
2022/11/19 04:05:43;;;;;;;10.88;8.75;;;;;;;20.10;45.27;99734.09;1784427;79;21018;-80
2022/11/19 04:08:10;;;;;;;10.08;8.28;;;;;;;20.11;45.25;99741.23;1766549;80;21061;-80
2022/11/19 04:10:36;;;;;;;11.95;8.68;;;;;;;20.08;45.25;99742.14;1773647;80;21790;-79
2022/11/19 04:13:02;;;;;;;12.43;9.15;;;;;;;20.08;45.24;99750.42;1766755;80;21050;-80
2022/11/19 04:15:28;;;;;;;13.32;8.55;;;;;;;20.10;45.24;99752.05;1785225;80;21055;-80
2022/11/19 04:17:55;;;;;;;11.45;8.30;;;;;;;20.09;45.23;99758.13;1766898;80;21008;-80
2022/11/19 04:20:21;;;;;;;10.95;7.85;;;;;;;20.08;45.23;99762.84;1811021;79;21102;-80
2022/11/19 04:22:52;;;;;;;11.57;9.05;;;;;;;20.08;45.21;99760.09;1774938;80;21178;-80
2022/11/19 04:25:18;;;;;;;;;;;;;;;20.08;45.20;99764.23;1784435;80;21038;-80
2022/11/19 04:27:45;;;;;;;10.95;8.13;;;;;;;20.08;45.19;99768.37;1781547;80;20210;-80
2022/11/19 04:30:13;;;;;;;10.80;8.58;;;;;;;20.07;45.21;99774.25;1781494;80;21031;-80
2022/11/19 04:32:40;;;;;;;11.80;8.78;;;;;;;20.06;45.21;99779.53;1781698;80;21030;-79
2022/11/19 04:35:07;;;;;;;10.90;7.83;;;;;;;20.05;45.21;99781.48;1781779;80;21770;-81
2022/11/19 04:37:33;;;;;;;11.00;7.85;;;;;;;20.05;45.20;99788.38;1774670;80;21019;-80
2022/11/19 04:39:59;;;;;;;11.33;8.48;;;;;;;20.06;45.21;99790.57;1781802;80;21390;-80
2022/11/19 04:42:25;;;;;;;12.43;8.65;;;;;;;20.07;45.20;99790.81;1781734;79;21062;-80
2022/11/19 04:44:52;;;;;;;10.72;8.03;;;;;;;20.05;45.20;99779.29;1781413;80;21019;-80
2022/11/19 04:47:18;;;;;;;10.05;7.83;;;;;;;20.05;45.20;99789.77;1781684;80;21422;-80
2022/11/19 04:49:44;;;;;;;11.73;8.23;;;;;;;20.06;45.18;99794.72;1781582;79;20990;-80
2022/11/19 04:52:11;;;;;;;12.35;8.48;;;;;;;20.06;45.17;99795.53;1781384;80;20979;-81
2022/11/19 04:54:42;;;;;;;11.48;8.65;;;;;;;20.06;45.15;99803.00;1781295;80;21525;-79
2022/11/19 04:57:09;;;;;;;11.60;8.35;;;;;;;20.05;45.14;99814.61;1781820;79;21057;-80
2022/11/19 04:59:35;;;;;;;11.38;8.23;;;;;;;20.05;45.13;99813.80;1781292;79;21182;-80
2022/11/19 05:02:01;;;;;;;12.20;8.55;;;;;;;20.05;45.12;99816.56;1781450;80;21501;-80
2022/11/19 05:04:27;;;;;;;10.18;8.05;;;;;;;20.04;45.11;99812.98;1774999;80;21003;-80
2022/11/19 05:06:53;;;;;;;10.08;8.25;;;;;;;20.04;45.10;99819.08;1781405;80;20994;-80
2022/11/19 05:09:20;;;;;;;11.85;8.43;;;;;;;20.04;45.13;99832.31;1781831;80;21034;-80
2022/11/19 05:11:46;;;;;;;11.53;8.40;;;;;;;20.05;45.11;99828.98;1784115;79;21477;-80
2022/11/19 05:14:12;;;;;;;10.50;7.95;;;;;;;20.04;45.10;99834.27;1783530;80;20938;-80
2022/11/19 05:16:38;;;;;;;12.93;9.38;;;;;;;20.04;45.10;99839.79;1783863;80;21053;-80
2022/11/19 05:19:05;;;;;;;11.50;8.68;;;;;;;20.04;45.09;99834.27;1783842;79;21046;-80
2022/11/19 05:21:31;;;;;;;10.88;8.40;;;;;;;20.04;45.09;99841.17;1764612;80;20995;-81
2022/11/19 05:24:03;;;;;;;10.80;7.97;;;;;;;20.03;45.09;99848.64;1783890;80;21002;-80
2022/11/19 05:26:29;;;;;;;11.00;8.30;;;;;;;20.03;45.10;99851.40;1783766;80;20967;-80
2022/11/19 05:28:55;;;;;;;11.25;8.15;;;;;;;20.02;45.08;99845.67;1783567;79;21499;-80
2022/11/19 05:31:21;;;;;;;11.30;8.03;;;;;;;20.01;45.08;99862.56;1784082;80;21042;-80
2022/11/19 05:33:48;;;;;;;9.83;7.58;;;;;;;20.02;45.08;99860.86;1783904;79;20986;-80
2022/11/19 05:36:14;;;;;;;10.53;7.87;;;;;;;20.02;45.09;99866.38;1783714;79;21184;-80
2022/11/19 05:38:40;;;;;;;9.73;8.15;;;;;;;20.01;45.09;99870.84;1783794;79;21053;-80
2022/11/19 05:41:06;;;;;;;10.45;8.08;;;;;;;20.02;45.08;99868.33;1783786;80;21014;-80
2022/11/19 05:43:32;;;;;;;9.83;8.18;;;;;;;20.01;45.08;99874.98;1783583;79;21033;-80
2022/11/19 05:46:00;;;;;;;9.83;7.30;;;;;;;20.01;45.08;99883.27;1783911;80;21014;-81
2022/11/19 05:48:28;;;;;;;10.58;7.53;;;;;;;20.01;45.06;99886.03;1783825;80;21095;-80
2022/11/19 05:50:54;;;;;;;10.30;8.03;;;;;;;20.00;45.04;99899.02;1783538;79;21417;-79
2022/11/19 05:53:20;;;;;;;9.20;7.22;;;;;;;20.00;45.01;99892.69;1784049;80;21105;-80
2022/11/19 05:55:46;;;;;;;9.70;7.78;;;;;;;19.99;45.03;99891.88;1783812;79;21421;-80
2022/11/19 05:58:13;;;;;;;10.35;7.78;;;;;;;19.99;45.03;99898.77;1783589;79;21062;-80
2022/11/19 06:00:39;;;;;;;11.10;7.85;;;;;;;19.98;45.01;99901.33;1783885;79;21149;-80
2022/11/19 06:03:05;;;;;;;10.03;7.03;;;;;;;19.98;45.02;99912.37;1766055;80;21039;-80
2022/11/19 06:05:32;;;;;;;9.83;7.12;;;;;;;19.98;45.02;99908.80;1783574;79;21067;-80
2022/11/19 06:07:58;;;;;;;10.55;7.10;;;;;;;19.99;45.02;99913.15;1783992;80;21070;-80
2022/11/19 06:10:24;;;;;;;10.08;7.65;;;;;;;19.98;45.00;99918.45;1787765;79;21011;-80
2022/11/19 06:12:51;;;;;;;9.13;6.97;;;;;;;19.98;44.98;99925.36;1792270;80;21114;-80
2022/11/19 06:15:17;;;;;;;8.80;6.97;;;;;;;19.98;44.98;99929.50;1791578;80;21108;-80
2022/11/19 06:17:43;;;;;;;9.30;6.83;;;;;;;19.98;44.97;99937.22;1791601;80;21512;-80
2022/11/19 06:20:10;;;;;;;7.45;6.40;;;;;;;19.99;45.02;99944.90;1791423;80;21757;-80
2022/11/19 06:22:37;;;;;;;8.38;6.55;;;;;;;19.99;44.98;99950.42;1791758;79;20966;-80
2022/11/19 06:25:04;;;;;;;11.30;7.28;;;;;;;19.98;44.98;99947.45;1791653;80;21239;-80
2022/11/19 06:27:30;;;;;;;7.97;6.70;;;;;;;19.98;44.97;99946.06;1792002;79;21002;-81
2022/11/19 06:29:56;;;;;;;7.58;6.60;;;;;;;19.97;44.95;99954.91;1776843;80;21003;-80
2022/11/19 06:32:22;;;;;;;8.63;6.50;;;;;;;19.97;44.96;99963.77;1792721;79;20974;-80
2022/11/19 06:34:49;;;;;;;8.00;6.22;;;;;;;19.97;44.93;99969.28;1792197;79;21038;-80
2022/11/19 06:37:15;;;;;;;7.70;6.10;;;;;;;19.98;44.95;99966.77;1792364;80;21122;-80
2022/11/19 06:39:41;;;;;;;8.45;6.80;;;;;;;19.97;44.94;99981.14;1792435;80;21508;-80
2022/11/19 06:44:52;;;;;;;12.13;6.50;;;;;;;19.97;44.92;100008.75;1792121;80;20979;-80
2022/11/19 06:47:19;;;;;;;9.43;6.28;;;;;;;19.97;44.91;100025.89;1792204;80;21021;-81
2022/11/19 06:49:45;;;;;;;9.30;6.70;;;;;;;19.96;44.90;100047.16;1792452;79;21562;-80
2022/11/19 06:52:11;;;;;;;7.78;5.95;;;;;;;19.96;44.89;100044.40;1792352;80;20927;-80
2022/11/19 06:54:38;;;;;;;8.43;5.97;;;;;;;19.96;44.91;100040.83;1792260;79;21463;-80
2022/11/19 06:57:04;;;;;;;6.65;5.75;;;;;;;19.97;44.91;100049.35;1792554;79;21073;-80
2022/11/19 06:59:30;;;;;;;8.53;6.30;;;;;;;19.97;44.89;100060.39;1792382;80;21010;-80
2022/11/19 07:01:56;;;;;;;7.37;5.50;;;;;;;19.97;44.89;100063.97;1792474;80;21113;-80
2022/11/19 07:04:22;;;;;;;8.48;6.62;;;;;;;19.96;44.90;100073.39;1792731;79;21103;-80
2022/11/19 07:06:48;;;;;;;7.15;5.58;;;;;;;19.97;44.88;100082.48;1792580;79;21073;-79
2022/11/19 07:09:15;;;;;;;8.38;6.00;;;;;;;19.96;44.88;100080.30;1792520;80;21050;-80
2022/11/19 07:11:41;;;;;;;7.62;5.62;;;;;;;19.97;44.88;100093.53;1783790;80;21132;-80
2022/11/19 07:14:07;;;;;;;6.03;5.17;;;;;;;19.98;44.88;100095.16;1781902;80;21465;-79
2022/11/19 07:16:35;;;;;;;7.78;5.70;;;;;;;19.97;44.88;100099.86;1780787;80;21589;-80
2022/11/19 07:19:04;;;;;;;7.37;5.45;;;;;;;19.97;44.85;100104.00;1782550;80;21014;-80
2022/11/19 07:21:30;;;;;;;5.97;5.12;;;;;;;19.98;44.85;100102.06;1782230;80;21311;-79
2022/11/19 07:23:57;;;;;;;7.85;5.55;;;;;;;19.98;44.83;100104.82;1782184;80;21743;-80
2022/11/19 07:26:24;;;;;;;7.22;5.62;;;;;;;19.97;44.83;100113.67;1782171;79;21076;-79
2022/11/19 07:28:50;;;;;;;7.75;5.62;;;;;;;19.97;44.82;100112.86;1781353;80;21549;-80
2022/11/19 07:31:16;;;;;;;7.20;5.20;;;;;;;19.97;44.84;100116.43;1780346;79;21033;-80
2022/11/19 07:33:43;;;;;;;6.67;5.15;;;;;;;19.98;44.80;100111.16;1780634;79;21096;-80
2022/11/19 07:36:10;;;;;;;6.60;5.20;;;;;;;19.98;44.81;100107.02;1780745;80;21057;-81
2022/11/19 07:38:37;;;;;;;6.17;5.20;;;;;;;19.99;44.79;100108.61;1780089;80;21713;-80
2022/11/19 07:42:48;;;;;;;6.22;5.05;;;;;;;19.98;44.80;100116.68;1741508;81;21067;-81
2022/11/19 07:43:32;;;;;;;6.30;5.40;;;;;;;19.99;44.80;100125.18;1756548;81;21473;-80
2022/11/19 07:46:05;;;;;;;6.85;5.20;;;;;;;20.00;44.80;100125.99;1731646;82;21475;-80
2022/11/19 07:48:32;;;;;;;8.08;5.58;;;;;;;20.00;44.79;100130.13;1742249;82;21007;-79
2022/11/19 07:50:58;;;;;;;5.97;4.97;;;;;;;20.00;44.77;100131.52;1742244;82;21280;-80
2022/11/19 07:53:24;;;;;;;6.15;4.92;;;;;;;19.99;44.76;100130.70;1741995;81;21034;-79
2022/11/19 07:55:50;;;;;;;6.22;4.67;;;;;;;20.00;44.76;100131.52;1742111;82;21596;-79
2022/11/19 07:58:17;;;;;;;5.87;4.95;;;;;;;20.02;44.74;100136.16;1742112;82;21173;-80
2022/11/19 08:00:43;;;;;;;6.22;4.65;;;;;;;20.02;44.74;100146.63;1742342;81;21110;-80
2022/11/19 08:03:10;;;;;;;6.30;4.75;;;;;;;20.02;44.73;100148.02;1742405;81;21133;-80
2022/11/19 08:05:39;;;;;;;5.80;4.60;;;;;;;20.02;44.73;100150.77;1742480;82;21498;-80
2022/11/19 08:08:05;;;;;;;6.72;4.87;;;;;;;20.03;44.73;100164.80;1742186;82;21489;-79
2022/11/19 08:10:32;;;;;;;6.90;4.53;;;;;;;20.04;44.72;100168.38;1742260;81;21577;-80
2022/11/19 08:13:04;;;;;;;6.60;4.30;;;;;;;20.04;44.72;100173.89;1742556;81;21047;-79
2022/11/19 08:15:31;;;;;;;5.05;4.50;;;;;;;20.04;44.71;100173.89;1742298;82;21796;-79
2022/11/19 08:18:14;;;;;;;5.10;4.47;;;;;;;20.04;44.72;100176.09;1742221;80;21425;-79
2022/11/19 08:20:47;;;;;;;5.03;3.90;;;;;;;20.04;44.69;100191.28;1742311;81;21028;-80
2022/11/19 08:23:13;;;;;;;5.75;4.50;;;;;;;20.05;44.66;100204.52;1741673;81;21509;-80
2022/11/19 08:25:43;;;;;;;5.72;4.35;;;;;;;20.05;44.66;100216.95;1742467;82;21003;-79
2022/11/19 08:28:09;;;;;;;5.03;4.22;;;;;;;20.06;44.66;100222.15;1742204;82;21167;-79
2022/11/19 08:30:38;;;;;;;6.55;4.67;;;;;;;20.06;44.65;100221.34;1742320;82;21066;-79
2022/11/19 08:33:04;;;;;;;5.15;4.28;;;;;;;20.06;44.64;100234.58;1742582;81;21347;-80
2022/11/19 08:35:30;;;;;;;5.08;4.28;;;;;;;20.07;44.65;100227.89;1742279;80;21026;-80
2022/11/19 08:37:57;;;;;;;4.22;3.77;;;;;;;20.08;44.64;100241.13;1742681;82;21058;-80
2022/11/19 08:40:24;;;;;;;5.03;3.92;;;;;;;20.08;44.62;100248.85;1741809;81;21959;-79
2022/11/19 08:43:00;;;;;;;4.72;3.62;;;;;;;20.09;44.61;100244.14;1741115;81;21526;-79
2022/11/19 08:45:30;;;;;;;5.17;4.50;;;;;;;20.09;44.61;100260.72;1742224;82;21046;-80
2022/11/19 08:47:58;;;;;;;6.00;4.12;;;;;;;20.10;44.60;100260.15;1742512;80;21030;-79
2022/11/19 08:50:24;;;;;;;4.25;3.52;;;;;;;20.11;44.58;100259.83;1742440;82;21711;-80
2022/11/19 08:53:02;;;;;;;5.15;4.20;;;;;;;20.13;44.55;100263.63;1742301;81;21165;-79
2022/11/19 08:55:29;;;;;;;5.08;4.10;;;;;;;20.13;44.54;100257.54;1742160;81;21053;-80
2022/11/19 08:58:03;;;;;;;4.65;3.77;;;;;;;20.15;44.52;100262.75;1742212;80;21067;-79
2022/11/19 09:00:30;;;;;;;5.42;3.62;;;;;;;20.16;44.51;100264.34;1742248;82;21003;-80
2022/11/19 09:02:56;;;;;;;5.12;4.28;;;;;;;20.15;44.51;100274.61;1756540;80;21370;-80
2022/11/19 09:05:22;;;;;;;5.00;3.87;;;;;;;20.16;44.49;100272.63;1772979;79;21218;-80
2022/11/19 09:07:49;;;;;;;4.25;3.40;;;;;;;20.18;44.49;100274.52;1771999;79;21523;-80
2022/11/19 09:10:16;;;;;;;5.08;3.75;;;;;;;20.17;44.48;100277.84;1773181;79;21519;-79
2022/11/19 09:12:49;;;;;;;5.10;3.62;;;;;;;20.19;44.44;100280.28;1784266;79;21054;-80
2022/11/19 09:15:15;;;;;;;4.72;3.60;;;;;;;20.19;44.45;100278.91;1783533;80;21098;-80
2022/11/19 09:17:42;;;;;;;3.85;3.42;;;;;;;20.20;44.43;100278.55;1783863;80;21653;-80
2022/11/19 09:20:09;;;;;;;4.08;3.42;;;;;;;20.21;44.44;100283.52;1783727;79;21034;-80
2022/11/19 09:22:35;;;;;;;4.12;3.58;;;;;;;20.22;44.42;100287.34;1782966;80;21022;-80
2022/11/19 09:25:02;;;;;;;5.33;3.30;;;;;;;20.23;44.43;100287.59;1783789;79;21113;-80
2022/11/19 09:27:28;;;;;;;4.92;3.62;;;;;;;20.23;44.42;100289.54;1783671;80;20995;-80
2022/11/19 09:29:54;;;;;;;4.10;3.62;;;;;;;20.23;44.40;100286.21;1783439;80;22021;-80
2022/11/19 09:32:20;;;;;;;5.50;3.60;;;;;;;20.25;44.39;100292.20;1783624;80;21078;-80
2022/11/19 09:34:47;;;;;;;4.78;3.12;;;;;;;20.26;44.36;100288.88;1783695;79;21468;-80
2022/11/19 09:37:13;;;;;;;3.72;3.15;;;;;;;20.26;44.38;100289.69;1783525;80;21026;-80
2022/11/19 09:39:40;;;;;;;4.70;3.50;;;;;;;20.26;44.36;100288.31;1783627;80;21092;-80
2022/11/19 09:42:34;;;;;;;4.85;3.25;;;;;;;20.27;44.33;100300.99;1783937;79;21937;-80
2022/11/19 09:45:27;;;;;;;4.42;3.22;;;;;;;20.28;44.32;100303.19;1797702;78;21517;-80
2022/11/19 09:48:17;;;;;;;3.85;3.37;;;;;;;20.28;44.30;100308.71;1783679;80;21030;-80
2022/11/19 09:51:03;;;;;;;4.15;2.98;;;;;;;20.28;44.28;100315.05;1783669;79;21000;-80
2022/11/19 09:53:37;;;;;;;4.15;3.35;;;;;;;20.28;44.28;100320.58;1784061;80;21034;-80
2022/11/19 09:56:04;;;;;;;3.87;3.10;;;;;;;20.28;44.29;100325.28;1783535;80;21183;-80
2022/11/19 09:58:37;;;;;;;4.53;3.22;;;;;;;20.28;44.28;100334.39;1739572;80;20986;-80
2022/11/19 10:01:04;;;;;;;4.00;3.17;;;;;;;20.28;44.28;100337.16;1783738;79;21003;-80
2022/11/19 10:03:31;;;;;;;4.25;3.50;;;;;;;20.28;44.26;100334.95;1783407;80;20999;-80
2022/11/19 10:06:21;;;;;;;4.15;3.22;;;;;;;20.28;44.30;100327.48;1783884;79;21019;-80
2022/11/19 10:09:17;;;;;;;3.80;3.05;;;;;;;20.29;44.29;100322.20;1783489;80;21105;-80
2022/11/19 10:12:15;;;;;;;4.22;3.37;;;;;;;20.28;44.29;100330.25;1784124;79;21031;-80
2022/11/19 10:14:47;;;;;;;4.12;3.30;;;;;;;20.28;44.28;100335.77;1810965;78;21062;-80
2022/11/19 10:17:39;;;;;;;4.28;3.27;;;;;;;20.28;44.28;100332.19;1792217;80;21006;-81
2022/11/19 10:20:31;;;;;;;4.97;3.42;;;;;;;20.29;44.29;100336.02;1811221;79;20999;-80
2022/11/19 10:23:15;;;;;;;3.52;2.65;;;;;;;20.29;44.28;100333.80;1792501;80;21223;-80
2022/11/19 10:25:46;;;;;;;3.50;2.83;;;;;;;20.28;44.31;100331.63;1792077;79;21030;-80
2022/11/19 10:28:29;;;;;;;4.62;3.20;;;;;;;20.28;44.29;100335.77;1811391;79;21073;-81
2022/11/19 10:30:59;;;;;;;4.83;3.02;;;;;;;20.28;44.30;100339.91;1792162;79;21104;-80
2022/11/19 10:33:37;;;;;;;4.08;2.67;;;;;;;20.29;44.30;100329.65;1783868;79;21034;-80
2022/11/19 10:36:10;;;;;;;4.12;3.35;;;;;;;20.29;44.32;100329.11;1802899;79;21511;-80
2022/11/19 10:38:46;;;;;;;4.87;3.00;;;;;;;20.28;44.32;100326.67;1792317;80;21357;-80
2022/11/19 10:41:24;;;;;;;4.97;3.22;;;;;;;20.29;44.32;100336.02;1792000;79;21093;-80
2022/11/19 10:43:58;;;;;;;5.30;3.40;;;;;;;20.30;44.35;100334.08;1811380;78;21014;-80
2022/11/19 10:46:25;;;;;;;3.83;3.22;;;;;;;20.29;44.36;100334.64;1792109;80;21026;-80
2022/11/19 10:48:55;;;;;;;4.45;3.42;;;;;;;20.30;44.37;100336.84;1811497;79;22103;-80
2022/11/19 10:51:25;;;;;;;4.43;2.87;;;;;;;20.30;44.37;100326.60;1792716;80;21019;-80
2022/11/19 10:53:53;;;;;;;3.05;2.70;;;;;;;20.30;44.40;100333.51;1792245;79;26551;-80
2022/11/19 10:56:23;;;;;;;4.97;3.35;;;;;;;20.30;44.38;100332.69;1811301;79;21018;-80
2022/11/19 10:58:57;;;;;;;3.52;2.75;;;;;;;20.29;44.41;100327.73;1792019;78;21061;-81
2022/11/19 11:01:32;;;;;;;4.78;3.35;;;;;;;20.30;44.42;100329.93;1792131;80;21832;-80
2022/11/19 11:04:24;;;;;;;5.22;3.00;;;;;;;20.28;44.43;100334.95;1792456;80;20986;-81
2022/11/19 11:07:00;;;;;;;3.62;3.08;;;;;;;20.28;44.43;100346.82;1792138;80;21077;-81
2022/11/19 11:09:40;;;;;;;4.53;3.30;;;;;;;20.27;44.43;100341.61;1792318;80;21520;-80
2022/11/19 11:15:20;;;;;;;3.75;3.00;;;;;;;20.26;44.45;100331.69;1792176;80;21129;-81
2022/11/19 11:17:46;;;;;;;4.07;3.03;;;;;;;20.26;44.46;100330.31;1811237;79;21006;-80
2022/11/19 20:20:29;;;;;;;8.35;6.53;;;;;;;19.51;45.76;100561.97;1740061;79;20994;-80
2022/11/19 20:22:56;;;;;;;7.92;5.90;;;;;;;19.51;45.75;100560.59;1733412;82;20966;-80
2022/11/19 20:25:22;;;;;;;8.13;6.30;;;;;;;19.52;45.79;100566.34;1739286;82;21476;-80
2022/11/19 20:27:54;;;;;;;9.68;6.37;;;;;;;19.52;45.76;100567.72;1733622;82;21072;-80
2022/11/19 20:30:20;;;;;;;7.12;6.10;;;;;;;19.52;45.79;100567.72;1733411;81;21091;-80
2022/11/19 20:32:47;;;;;;;8.33;6.12;;;;;;;19.52;45.78;100578.19;1733713;82;21486;-80
2022/11/19 20:35:14;;;;;;;7.33;5.78;;;;;;;19.53;45.78;100589.48;1733720;82;21092;-80
2022/11/19 20:37:40;;;;;;;9.08;5.80;;;;;;;19.53;45.78;100590.87;1733576;82;21036;-80
2022/11/19 20:40:08;;;;;;;8.63;6.08;;;;;;;19.54;45.75;100580.09;1733669;82;21116;-80
2022/11/19 20:45:20;;;;;;;7.92;5.92;;;;;;;19.56;45.74;100568.74;1759582;79;21533;-80
2022/11/19 20:47:46;;;;;;;8.58;5.95;;;;;;;19.56;45.73;100559.09;1733841;81;21100;-80
2022/11/19 20:50:13;;;;;;;6.70;5.92;;;;;;;19.55;45.71;100540.33;1765004;81;21488;-80
2022/11/19 20:52:39;;;;;;;7.00;5.95;;;;;;;19.55;45.71;100528.47;1733666;82;21499;-80
2022/11/19 20:55:06;;;;;;;7.87;6.30;;;;;;;19.57;45.69;100520.67;1733775;82;21268;-81
2022/11/19 20:57:32;;;;;;;7.30;6.20;;;;;;;19.55;45.70;100505.84;1733653;82;21026;-80
2022/11/19 20:59:59;;;;;;;7.47;6.12;;;;;;;19.55;45.67;100496.17;1733467;82;21454;-79
2022/11/19 21:02:25;;;;;;;7.75;6.15;;;;;;;19.57;45.67;100501.36;1733645;82;21024;-80